Time;durP1;ratioP1;P1;durP2;ratioP2;P2;SDS_P1;SDS_P2;PMS_P1;PMS_P2;Temp;Humidity;BMP_temperature;BMP_pressure;BME280_temperature;BME280_humidity;BME280_pressure;Samples;Min_cycle;Max_cycle;Signal;HPM_P1;HPM_P2
2022/11/30 00:00:41;;;;;;;48.38;28.02;;;;;;;29.77;61.97;100976.38;5083370;27;69398;-33
2022/11/30 00:03:13;;;;;;;50.05;26.45;;;;;;;29.84;61.18;100969.09;5078692;27;65301;-32
2022/11/30 00:05:45;;;;;;;49.05;24.92;;;;;;;29.91;62.07;100973.66;5084125;27;69028;-32
2022/11/30 00:08:17;;;;;;;46.08;24.83;;;;;;;29.89;62.62;100975.75;5084685;27;66203;-33
2022/11/30 00:10:49;;;;;;;41.15;24.23;;;;;;;30.00;61.59;100972.38;5083209;27;69642;-32
2022/11/30 00:13:20;;;;;;;38.27;24.00;;;;;;;29.97;61.88;100976.34;5080882;27;65488;-34
2022/11/30 00:15:51;;;;;;;40.20;23.27;;;;;;;30.04;62.69;100985.28;5087488;27;69164;-34
2022/11/30 00:18:23;;;;;;;49.88;24.52;;;;;;;29.94;62.86;100981.34;5085200;27;65564;-33
2022/11/30 00:20:56;;;;;;;46.90;23.83;;;;;;;30.07;62.22;100989.44;5079647;27;70035;-33
2022/11/30 00:23:39;;;;;;;41.05;23.33;;;;;;;30.12;63.52;100997.75;5086341;27;65782;-36
2022/11/30 00:26:13;;;;;;;47.10;23.52;;;;;;;30.21;61.99;101007.28;5078346;27;70520;-34
2022/11/30 00:28:45;;;;;;;44.53;24.00;;;;;;;30.16;63.68;100998.97;5087126;27;66186;-32
2022/11/30 00:31:18;;;;;;;49.10;24.52;;;;;;;30.07;64.44;100994.84;5080560;27;70285;-34
2022/11/30 00:33:50;;;;;;;46.25;24.55;;;;;;;30.18;62.71;100996.91;5080521;27;65794;-33
2022/11/30 00:36:22;;;;;;;38.60;23.77;;;;;;;30.24;62.67;101003.34;5082458;27;68161;-33
2022/11/30 00:38:54;;;;;;;45.65;23.00;;;;;;;30.17;62.53;100994.38;5082754;27;66297;-34
2022/11/30 00:41:25;;;;;;;;;;;;;;;29.94;66.15;101016.50;5090116;27;70252;-33
2022/11/30 00:43:56;;;;;;;39.45;22.77;;;;;;;30.20;63.15;101015.59;5088047;27;66428;-34
2022/11/30 00:46:28;;;;;;;37.17;21.63;;;;;;;30.21;62.97;101015.41;5085278;27;69570;-35
2022/11/30 00:49:00;;;;;;;35.90;21.58;;;;;;;30.09;62.30;101006.28;5083268;27;65918;-34
2022/11/30 00:51:31;;;;;;;31.95;21.10;;;;;;;30.25;62.30;101032.91;5085568;27;68556;-34
2022/11/30 00:54:03;;;;;;;31.17;21.08;;;;;;;30.10;61.99;101007.13;5078175;27;64970;-34
2022/11/30 00:56:34;;;;;;;31.75;21.90;;;;;;;30.28;61.96;101037.91;5085416;27;70217;-34
2022/11/30 00:59:05;;;;;;;27.40;21.25;;;;;;;30.28;62.00;101039.75;5083368;27;65318;-35
2022/11/30 01:01:37;;;;;;;;;;;;;;;29.99;63.51;101041.06;5082387;27;69655;-34
2022/11/30 01:04:08;;;;;;;25.75;19.08;;;;;;;30.05;61.88;101007.75;5089039;27;66836;-35
2022/11/30 01:06:40;;;;;;;30.52;20.80;;;;;;;30.31;61.41;101041.22;5090133;27;69083;-34
2022/11/30 01:09:11;;;;;;;30.30;21.70;;;;;;;30.33;61.97;101050.78;5089782;27;66371;-34
2022/11/30 01:11:42;;;;;;;29.63;21.40;;;;;;;30.27;61.89;101038.09;5093246;27;70009;-35
2022/11/30 01:14:14;;;;;;;36.75;22.52;;;;;;;30.36;61.72;101047.66;5095285;27;66452;-35
2022/11/30 01:16:46;;;;;;;36.22;20.88;;;;;;;30.34;61.64;101043.50;5087755;27;70165;-38
2022/11/30 01:19:24;;;;;;;33.35;21.75;;;;;;;30.36;61.84;101053.06;5087083;27;67630;-37
2022/11/30 01:21:56;;;;;;;27.83;20.52;;;;;;;30.40;61.45;101059.72;5092845;27;70397;-34
2022/11/30 01:24:27;;;;;;;29.80;19.85;;;;;;;30.40;62.00;101048.91;5082225;27;66111;-34
2022/11/30 01:26:59;;;;;;;23.30;19.90;;;;;;;30.42;61.97;101057.66;5085819;27;69323;-34
2022/11/30 01:29:31;;;;;;;25.55;19.30;;;;;;;30.28;61.76;101029.78;5093657;27;65506;-34
2022/11/30 01:32:02;;;;;;;27.70;21.07;;;;;;;30.44;61.39;101060.13;5090075;27;70506;-34
2022/11/30 01:34:34;;;;;;;27.92;20.58;;;;;;;30.42;61.50;101045.97;5090713;27;66494;-35
2022/11/30 01:37:05;;;;;;;27.92;20.42;;;;;;;30.36;61.67;101052.22;5086569;27;69619;-35
2022/11/30 01:39:37;;;;;;;31.77;20.55;;;;;;;30.47;61.40;101060.53;5084148;27;66684;-35
2022/11/30 01:42:15;;;;;;;25.33;20.63;;;;;;;30.11;61.22;101006.88;5090197;27;70442;-35
2022/11/30 01:44:59;;;;;;;34.95;21.80;;;;;;;30.55;60.99;101062.16;5085045;27;65684;-35
2022/11/30 01:47:48;;;;;;;29.50;20.35;;;;;;;30.30;61.22;101042.25;5086386;27;69620;-35
2022/11/30 01:50:30;;;;;;;28.10;21.60;;;;;;;30.08;61.13;100995.66;5092009;27;66839;-36
2022/11/30 01:53:04;;;;;;;29.88;21.85;;;;;;;30.56;61.17;101069.22;5085628;27;70456;-36
2022/11/30 01:55:48;;;;;;;33.45;22.75;;;;;;;30.16;60.90;100998.97;5089935;27;65950;-36
2022/11/30 01:58:25;;;;;;;28.63;21.45;;;;;;;30.59;60.96;101063.41;5086643;27;69601;-34
2022/11/30 02:00:59;;;;;;;28.65;21.63;;;;;;;30.61;60.90;101074.84;5085174;27;65642;-36
2022/11/30 02:03:43;;;;;;;30.27;22.08;;;;;;;30.62;60.68;101063.00;5085485;27;69802;-34
2022/11/30 02:06:15;;;;;;;32.83;21.85;;;;;;;30.62;61.03;101063.00;5087011;27;66609;-35
2022/11/30 02:08:48;;;;;;;22.83;20.30;;;;;;;30.62;60.82;101063.00;5088532;27;71072;-36
2022/11/30 02:11:20;;;;;;;29.05;20.60;;;;;;;30.26;60.78;101003.97;5087115;27;65326;-35
2022/11/30 02:13:53;;;;;;;;;;;;;;;30.32;62.06;101062.66;5087894;27;70623;-35
2022/11/30 02:16:57;;;;;;;30.70;20.30;;;;;;;30.63;61.53;101053.81;5094834;27;65788;-35
2022/11/30 02:19:53;;;;;;;28.88;20.88;;;;;;;30.59;61.09;101057.16;5064537;27;69585;-35
2022/11/30 02:22:28;;;;;;;30.63;21.70;;;;;;;30.70;61.16;101070.88;5089953;27;65508;-35
2022/11/30 02:25:26;;;;;;;28.33;21.48;;;;;;;30.54;61.42;101043.44;5096235;27;70243;-34
2022/11/30 02:28:21;;;;;;;26.98;21.20;;;;;;;30.73;60.88;101051.47;5089514;27;65379;-34
2022/11/30 02:30:58;;;;;;;31.02;21.50;;;;;;;30.28;60.44;100972.09;5092394;27;68852;-34
2022/11/30 02:33:33;;;;;;;25.42;21.70;;;;;;;30.45;60.56;100996.81;5097494;27;66227;-35
2022/11/30 02:36:07;;;;;;;28.73;21.10;;;;;;;30.73;60.77;101035.22;5092505;27;70286;-35
2022/11/30 02:38:39;;;;;;;28.20;21.00;;;;;;;30.82;60.67;101035.00;5083022;27;65149;-35
2022/11/30 02:41:11;;;;;;;28.75;22.25;;;;;;;30.85;60.67;101034.59;5084510;27;69865;-35
2022/11/30 02:43:43;;;;;;;31.73;22.27;;;;;;;30.86;60.69;101038.94;5091707;27;66597;-36
2022/11/30 02:46:34;;;;;;;29.35;21.70;;;;;;;30.69;60.71;101036.69;5086862;27;68476;-35
2022/11/30 02:49:13;;;;;;;25.63;21.20;;;;;;;30.91;60.51;101039.13;5092451;27;65416;-35
2022/11/30 02:51:45;;;;;;;28.55;20.90;;;;;;;30.79;60.55;101025.41;5084517;27;70287;-35
2022/11/30 02:54:18;;;;;;;31.83;22.50;;;;;;;30.90;60.51;101027.47;5093227;27;66593;-34
2022/11/30 02:56:49;;;;;;;24.85;21.08;;;;;;;30.95;60.25;101029.50;5084043;27;70137;-36
2022/11/30 02:59:21;;;;;;;23.83;20.08;;;;;;;30.89;60.20;101012.25;5091747;27;66318;-34
2022/11/30 03:01:53;;;;;;;29.65;21.17;;;;;;;30.97;60.50;101015.75;5093488;27;69700;-36
2022/11/30 03:04:24;;;;;;;28.08;21.92;;;;;;;30.96;60.52;101023.06;5089947;27;66427;-35
2022/11/30 03:06:56;;;;;;;23.58;19.67;;;;;;;31.00;60.73;101021.56;5089045;27;70193;-35
2022/11/30 03:09:27;;;;;;;27.58;20.75;;;;;;;31.02;60.53;101024.88;5092784;27;64971;-35
2022/11/30 03:11:59;;;;;;;24.05;20.63;;;;;;;31.03;60.11;101021.13;5081919;27;69706;-37
2022/11/30 03:14:31;;;;;;;26.95;21.33;;;;;;;31.05;60.35;101024.44;5085872;27;66104;-35
2022/11/30 03:17:04;;;;;;;28.25;20.85;;;;;;;31.08;60.47;101028.59;5083983;27;70017;-34
2022/11/30 03:19:36;;;;;;;26.85;21.30;;;;;;;31.10;60.00;101027.34;5083396;27;66823;-35
2022/11/30 03:22:07;;;;;;;25.67;19.85;;;;;;;31.06;60.24;101007.13;5089266;27;69913;-40
2022/11/30 03:24:39;;;;;;;25.30;20.42;;;;;;;31.11;60.19;101018.16;5091398;27;65492;-35
2022/11/30 03:27:11;;;;;;;25.58;20.77;;;;;;;31.07;59.88;101000.69;5091570;27;69953;-35
2022/11/30 03:29:43;;;;;;;28.15;20.10;;;;;;;31.16;60.30;101004.78;5083814;27;66358;-34
2022/11/30 03:32:14;;;;;;;27.45;20.83;;;;;;;31.21;60.23;100995.19;5089610;27;69753;-34
2022/11/30 03:34:46;;;;;;;29.88;20.80;;;;;;;31.22;59.89;100996.81;5091322;27;66193;-35
2022/11/30 03:37:18;;;;;;;26.52;20.42;;;;;;;31.26;59.77;100990.75;5090233;27;69954;-36
2022/11/30 03:39:49;;;;;;;23.70;20.73;;;;;;;31.28;59.67;100979.69;5094372;27;66135;-37
2022/11/30 03:42:27;;;;;;;22.73;20.02;;;;;;;31.33;59.69;100982.56;5084506;27;70208;-34
2022/11/30 03:44:58;;;;;;;26.75;19.50;;;;;;;31.34;59.62;100984.22;5082511;27;65222;-34
2022/11/30 03:47:30;;;;;;;26.02;19.67;;;;;;;31.36;59.37;100982.16;5083289;27;69974;-35
2022/11/30 03:50:01;;;;;;;21.42;17.83;;;;;;;31.39;59.45;100981.69;5084416;27;65951;-36
2022/11/30 03:52:33;;;;;;;25.83;18.55;;;;;;;31.39;59.28;100979.00;5082062;27;70650;-36
2022/11/30 03:55:05;;;;;;;23.67;18.30;;;;;;;31.28;59.40;100958.00;5083885;27;66099;-34
2022/11/30 03:57:36;;;;;;;;;;;;;;;31.15;60.02;100976.03;5082085;27;70712;-36
2022/11/30 04:00:07;;;;;;;22.58;18.73;;;;;;;31.46;59.51;100971.66;5081738;27;66088;-34
2022/11/30 04:02:42;;;;;;;23.60;18.52;;;;;;;31.44;59.30;100965.59;5079145;27;70200;-35
2022/11/30 04:05:14;;;;;;;20.95;17.77;;;;;;;31.51;59.52;100974.53;5084848;27;66095;-36
2022/11/30 04:07:45;;;;;;;;;;;;;;;31.24;59.92;100973.06;5085413;27;70317;-35
2022/11/30 04:10:16;;;;;;;20.23;17.15;;;;;;;31.44;59.12;100959.38;5086346;27;65370;-37
2022/11/30 04:12:48;;;;;;;25.30;17.67;;;;;;;31.55;59.46;100958.63;5081466;27;70333;-35
2022/11/30 04:15:19;;;;;;;20.60;18.05;;;;;;;31.57;59.42;100957.34;5080785;27;65446;-35
2022/11/30 04:17:51;;;;;;;20.88;17.10;;;;;;;31.11;59.45;100879.97;5080660;27;70464;-35
2022/11/30 04:20:22;;;;;;;23.63;17.90;;;;;;;31.60;59.32;100951.50;5085874;27;65902;-36
2022/11/30 04:22:57;;;;;;;22.10;17.25;;;;;;;31.19;59.13;100878.03;5083077;27;70157;-34
2022/11/30 04:25:28;;;;;;;21.02;18.15;;;;;;;31.62;59.13;100937.69;5090853;27;67083;-36
2022/11/30 04:27:59;;;;;;;23.00;17.83;;;;;;;31.67;59.27;100937.03;5093343;27;69197;-35
2022/11/30 04:30:32;;;;;;;21.05;18.08;;;;;;;31.30;59.48;100875.41;5090564;27;66508;-34
2022/11/30 04:33:05;;;;;;;19.73;17.00;;;;;;;31.67;58.93;100918.03;5090968;27;69559;-36
2022/11/30 04:35:42;;;;;;;20.88;18.65;;;;;;;31.67;58.94;100924.28;5095339;27;66150;-36
2022/11/30 04:38:15;;;;;;;25.92;18.98;;;;;;;31.57;59.23;100908.56;5092479;27;69739;-35
2022/11/30 04:40:46;;;;;;;24.63;18.38;;;;;;;31.68;59.03;100914.25;5087913;27;66628;-36
2022/11/30 04:43:18;;;;;;;20.85;18.52;;;;;;;31.56;59.23;100896.03;5083933;27;70216;-35
2022/11/30 04:45:49;;;;;;;;;;;;;;;31.38;59.46;100915.00;5093265;27;66789;-35
2022/11/30 04:48:21;;;;;;;26.15;17.63;;;;;;;31.67;59.17;100901.78;5086658;27;70068;-34
2022/11/30 04:50:52;;;;;;;18.38;16.77;;;;;;;31.70;58.78;100901.31;5092182;27;66059;-36
2022/11/30 04:53:24;;;;;;;25.35;17.60;;;;;;;31.71;59.18;100892.97;5091347;27;70009;-36
2022/11/30 04:55:55;;;;;;;19.67;17.50;;;;;;;31.72;59.02;100888.38;5093195;27;66536;-35
2022/11/30 04:58:27;;;;;;;22.52;17.95;;;;;;;31.70;59.01;100885.03;5088978;27;70348;-36
2022/11/30 05:00:59;;;;;;;21.83;17.60;;;;;;;31.77;58.88;100883.09;5090196;27;66504;-35
2022/11/30 05:03:30;;;;;;;23.25;17.40;;;;;;;31.72;59.19;100869.38;5083134;27;70625;-36
2022/11/30 05:06:03;;;;;;;21.92;17.70;;;;;;;31.78;59.06;100872.00;5088953;27;66154;-35
2022/11/30 05:08:34;;;;;;;23.52;17.50;;;;;;;31.80;59.24;100869.09;5089112;27;70643;-35
2022/11/30 05:11:07;;;;;;;21.70;17.92;;;;;;;31.82;59.17;100872.41;5088512;27;65878;-35
2022/11/30 05:13:38;;;;;;;18.15;16.48;;;;;;;31.80;58.84;100856.34;5083090;27;69117;-35
2022/11/30 05:16:10;;;;;;;22.52;17.20;;;;;;;31.86;58.90;100857.31;5088771;27;65115;-35
2022/11/30 05:18:41;;;;;;;17.95;15.25;;;;;;;31.88;58.84;100848.97;5085394;27;69557;-38
2022/11/30 05:21:12;;;;;;;19.60;16.15;;;;;;;31.87;58.72;100842.69;5091218;27;65988;-36
2022/11/30 05:23:45;;;;;;;18.52;16.65;;;;;;;31.90;59.05;100836.84;5099386;27;69313;-39
2022/11/30 05:26:17;;;;;;;18.13;15.48;;;;;;;31.95;58.61;100828.03;5094338;27;66777;-37
2022/11/30 05:28:48;;;;;;;19.65;16.30;;;;;;;31.96;58.97;100816.94;5089754;27;69928;-37
2022/11/30 05:31:20;;;;;;;18.90;16.17;;;;;;;31.97;58.70;100813.16;5088141;27;65036;-35
2022/11/30 05:33:53;;;;;;;17.15;15.50;;;;;;;31.92;58.59;100796.75;5088670;27;70007;-35
2022/11/30 05:36:24;;;;;;;17.77;16.05;;;;;;;32.02;58.58;100809.78;5084672;27;67163;-39
2022/11/30 05:38:55;;;;;;;16.65;14.93;;;;;;;31.95;58.85;100801.72;5084850;27;70369;-37
2022/11/30 05:41:27;;;;;;;24.75;15.18;;;;;;;32.03;58.79;100806.81;5096959;27;66288;-36
2022/11/30 05:43:58;;;;;;;17.17;15.32;;;;;;;32.03;58.78;100801.41;5085022;27;69197;-35
2022/11/30 05:46:30;;;;;;;16.55;14.98;;;;;;;31.94;58.62;100778.38;5083705;27;64742;-37
2022/11/30 05:49:03;;;;;;;19.90;14.70;;;;;;;32.07;58.61;100787.38;5084361;27;70192;-37
2022/11/30 05:51:35;;;;;;;19.65;14.70;;;;;;;32.05;58.83;100785.72;5081731;27;65313;-35
2022/11/30 05:54:06;;;;;;;;;;;;;;;31.75;59.73;100774.00;5085992;27;69543;-35
2022/11/30 05:56:37;;;;;;;15.68;14.13;;;;;;;31.93;58.98;100751.44;5083947;27;64997;-36
2022/11/30 05:59:10;;;;;;;16.25;14.75;;;;;;;31.93;58.91;100738.75;5083587;27;70158;-36
2022/11/30 06:01:42;;;;;;;16.52;14.75;;;;;;;32.05;58.89;100755.88;5093440;27;66587;-37
2022/11/30 06:04:13;;;;;;;17.63;15.13;;;;;;;32.01;58.72;100743.84;5085026;27;70317;-36
2022/11/30 06:06:45;;;;;;;16.23;14.80;;;;;;;32.09;58.78;100752.69;5087229;27;65048;-37
2022/11/30 06:09:16;;;;;;;15.43;13.85;;;;;;;32.09;58.99;100745.38;5083752;27;70142;-35
2022/11/30 06:11:48;;;;;;;16.10;14.60;;;;;;;32.05;58.43;100728.75;5079581;27;65545;-36
2022/11/30 06:14:20;;;;;;;15.90;13.88;;;;;;;32.09;58.45;100722.84;5088791;27;70588;-35
2022/11/30 06:16:52;;;;;;;15.38;13.85;;;;;;;32.18;58.73;100735.00;5079864;27;66828;-35
2022/11/30 06:19:24;;;;;;;15.50;14.15;;;;;;;32.21;58.64;100734.56;5086093;27;69764;-35
2022/11/30 06:21:55;;;;;;;14.73;13.27;;;;;;;32.13;58.67;100711.31;5089483;27;65573;-35
2022/11/30 06:24:26;;;;;;;14.55;13.25;;;;;;;32.16;58.78;100705.41;5083571;27;69961;-36
2022/11/30 06:26:58;;;;;;;13.85;12.73;;;;;;;32.27;58.75;100720.06;5082590;27;65108;-37
2022/11/30 06:29:29;;;;;;;15.68;13.98;;;;;;;31.96;58.67;100667.75;5083060;27;69599;-36
2022/11/30 06:32:01;;;;;;;14.55;13.20;;;;;;;31.77;58.53;100630.88;5082646;27;66213;-36
2022/11/30 06:34:33;;;;;;;15.20;13.70;;;;;;;32.33;58.52;100724.53;5085217;27;69670;-37
2022/11/30 06:37:04;;;;;;;13.95;12.80;;;;;;;32.32;58.61;100709.34;5081047;27;66085;-35
2022/11/30 06:39:35;;;;;;;16.80;12.48;;;;;;;32.32;58.45;100703.91;5081628;27;69969;-35
2022/11/30 06:42:29;;;;;;;14.18;13.13;;;;;;;32.39;58.48;100715.47;5079566;27;65854;-35
2022/11/30 06:45:00;;;;;;;14.65;13.10;;;;;;;32.32;58.28;100690.34;5086335;27;70316;-35
2022/11/30 06:47:33;;;;;;;13.70;12.50;;;;;;;32.32;58.48;100682.19;5090358;27;66022;-35
2022/11/30 06:50:07;;;;;;;13.93;12.55;;;;;;;32.45;58.31;100697.41;5083565;27;69874;-35
2022/11/30 06:52:38;;;;;;;12.85;11.63;;;;;;;32.47;58.51;100689.88;5086164;27;66152;-35
2022/11/30 06:55:10;;;;;;;13.88;12.63;;;;;;;32.51;58.34;100693.78;5082792;27;69895;-34
2022/11/30 06:57:42;;;;;;;13.57;12.30;;;;;;;32.46;58.15;100672.78;5079634;27;66344;-36
2022/11/30 07:00:15;;;;;;;12.90;11.88;;;;;;;32.58;58.11;100685.53;5091612;27;69935;-35
2022/11/30 07:02:45;;;;;;;;;;;;;;;32.27;58.70;100684.78;5080416;27;66289;-35
2022/11/30 07:05:17;;;;;;;12.23;11.20;;;;;;;32.58;58.47;100685.53;5081991;27;69193;-33
2022/11/30 07:07:48;;;;;;;12.00;11.07;;;;;;;32.61;58.15;100669.56;5081944;27;66262;-34
2022/11/30 07:10:21;;;;;;;12.73;11.75;;;;;;;32.64;58.00;100673.72;5083824;27;69516;-34
2022/11/30 07:12:53;;;;;;;13.15;12.00;;;;;;;32.69;58.02;100673.81;5082163;27;66269;-34
2022/11/30 07:15:24;;;;;;;12.30;11.25;;;;;;;32.69;58.00;100661.06;5085385;27;69448;-34
2022/11/30 07:17:55;;;;;;;;;;;;;;;32.40;58.49;100657.41;5079409;27;66562;-35
2022/11/30 07:20:27;;;;;;;11.15;10.35;;;;;;;32.69;58.16;100649.38;5089624;27;70218;-33
2022/11/30 07:26:05;;;;;;;12.27;11.25;;;;;;;32.74;58.00;100645.97;5083438;27;65569;-34
2022/11/30 07:26:05;;;;;;;11.57;10.63;;;;;;;32.75;57.71;100636.75;5085665;27;70700;-34
2022/11/30 07:28:39;;;;;;;12.70;11.60;;;;;;;32.40;57.79;100578.69;5092998;27;66312;-35
2022/11/30 07:31:33;;;;;;;12.65;11.55;;;;;;;32.43;57.63;100590.94;5080321;27;69750;-35
2022/11/30 07:34:08;;;;;;;12.10;10.98;;;;;;;32.82;57.91;100637.41;5086742;27;66819;-34
2022/11/30 07:36:39;;;;;;;11.40;10.45;;;;;;;32.84;57.68;100622.53;5085432;27;69631;-35
2022/11/30 07:39:12;;;;;;;11.15;10.25;;;;;;;32.86;57.34;100617.69;5086349;27;66067;-34
2022/11/30 07:41:43;;;;;;;12.18;11.02;;;;;;;32.85;57.63;100610.63;5091008;27;70404;-35
2022/11/30 07:44:15;;;;;;;12.25;11.35;;;;;;;32.80;57.40;100591.50;5089690;27;66795;-35
2022/11/30 07:46:47;;;;;;;11.30;10.27;;;;;;;32.91;57.50;100609.66;5087979;27;70407;-35
2022/11/30 07:49:19;;;;;;;11.35;10.65;;;;;;;32.85;57.55;100607.09;5085458;27;63348;-35
2022/11/30 07:51:51;;;;;;;12.07;10.98;;;;;;;32.85;57.37;100598.94;5082496;27;70588;-35
2022/11/30 07:54:22;;;;;;;;;;;;;;;32.69;57.83;100622.22;5085905;27;66100;-34
2022/11/30 07:56:53;;;;;;;10.55;9.55;;;;;;;32.94;57.38;100611.06;5085739;27;68843;-35
2022/11/30 07:59:25;;;;;;;11.30;10.30;;;;;;;33.00;57.40;100617.47;5091152;27;66359;-34
2022/11/30 08:01:57;;;;;;;10.98;9.85;;;;;;;32.93;57.27;100596.66;5086121;27;69828;-35
2022/11/30 08:04:28;;;;;;;10.95;9.90;;;;;;;33.02;57.33;100615.34;5092983;27;65930;-34
2022/11/30 08:07:00;;;;;;;11.10;10.18;;;;;;;32.89;57.01;100594.66;5084257;27;69009;-35
2022/11/30 08:09:31;;;;;;;;;;;;;;;32.81;57.97;100624.91;5089087;27;66597;-34
2022/11/30 08:12:02;;;;;;;11.40;9.52;;;;;;;32.92;57.21;100592.28;5084739;27;70698;-34
2022/11/30 08:14:36;;;;;;;10.43;9.63;;;;;;;32.97;57.20;100586.13;5094521;27;66578;-35
2022/11/30 08:17:26;;;;;;;;;;;;;;;32.85;57.47;100609.81;5090229;27;69365;-38
2022/11/30 08:19:58;;;;;;;9.68;8.98;;;;;;;33.13;57.26;100615.28;5087860;27;67162;-35
2022/11/30 08:22:29;;;;;;;9.98;9.13;;;;;;;33.06;57.07;100605.63;5091732;27;70166;-35
2022/11/30 08:25:01;;;;;;;10.60;9.77;;;;;;;33.17;57.10;100623.78;5095039;27;66176;-35
2022/11/30 08:27:32;;;;;;;11.55;9.50;;;;;;;33.13;56.97;100618.00;5089621;27;69348;-35
2022/11/30 08:30:04;;;;;;;11.15;9.27;;;;;;;32.96;56.49;100583.63;5090550;27;65337;-35
2022/11/30 08:32:36;;;;;;;13.48;9.05;;;;;;;33.08;57.24;100598.88;5086883;27;69246;-34
2022/11/30 08:35:08;;;;;;;10.10;9.30;;;;;;;33.23;57.04;100617.34;5088888;27;66316;-35
2022/11/30 08:37:39;;;;;;;10.30;9.20;;;;;;;33.07;56.73;100591.81;5096928;27;71084;-34
2022/11/30 08:40:11;;;;;;;10.38;9.35;;;;;;;33.25;56.98;100619.84;5091732;27;65739;-36
2022/11/30 08:42:43;;;;;;;9.77;8.95;;;;;;;33.26;56.79;100616.88;5098506;27;70291;-35
2022/11/30 08:45:14;;;;;;;9.75;8.93;;;;;;;33.27;56.56;100618.53;5090670;27;65247;-35
2022/11/30 08:47:46;;;;;;;10.15;9.18;;;;;;;33.26;56.53;100606.00;5093512;27;70167;-35
2022/11/30 08:50:21;;;;;;;9.68;8.88;;;;;;;33.18;56.68;100598.22;5093174;27;43199;-35
2022/11/30 08:52:55;;;;;;;12.57;9.52;;;;;;;33.30;56.63;100615.34;5086516;27;70368;-37
2022/11/30 08:55:33;;;;;;;10.50;9.48;;;;;;;33.29;56.77;100616.41;5089363;27;66104;-38
2022/11/30 08:58:04;;;;;;;10.82;9.48;;;;;;;33.33;56.66;100625.72;5084913;27;69964;-34
2022/11/30 09:00:36;;;;;;;13.05;9.57;;;;;;;33.32;56.87;100629.50;5084477;27;66045;-35
2022/11/30 09:03:07;;;;;;;10.90;9.25;;;;;;;33.34;56.42;100618.38;5084429;27;69277;-36
2022/11/30 09:05:38;;;;;;;11.23;10.07;;;;;;;33.31;56.64;100613.44;5086747;27;65610;-34
2022/11/30 09:08:10;;;;;;;9.15;8.65;;;;;;;33.24;57.00;100601.88;5086913;27;69167;-34
2022/11/30 09:10:42;;;;;;;20.27;9.30;;;;;;;33.30;56.65;100607.19;5087528;27;67100;-34
2022/11/30 09:13:13;;;;;;;9.38;8.63;;;;;;;33.31;56.56;100614.25;5080506;27;68806;-35
2022/11/30 09:15:54;;;;;;;15.27;9.85;;;;;;;33.34;56.58;100634.69;5087252;27;66661;-35
2022/11/30 09:18:26;;;;;;;10.50;9.10;;;;;;;33.35;56.68;100636.38;5085236;27;70490;-37
2022/11/30 09:21:05;;;;;;;10.80;9.73;;;;;;;33.34;56.58;100638.22;5082000;27;66080;-35
2022/11/30 09:23:38;;;;;;;10.82;9.73;;;;;;;33.36;56.77;100633.38;5073550;27;69378;-35
2022/11/30 09:26:12;;;;;;;10.40;9.45;;;;;;;32.97;56.53;100569.00;5086429;27;66439;-35
2022/11/30 09:28:45;;;;;;;10.15;9.32;;;;;;;33.36;56.71;100625.22;5084812;27;70577;-36
2022/11/30 09:31:20;;;;;;;12.07;10.13;;;;;;;33.38;56.83;100625.81;5095037;27;65681;-34
2022/11/30 09:33:54;;;;;;;10.88;9.73;;;;;;;33.37;56.92;100629.59;5083994;27;70238;-35
2022/11/30 09:36:27;;;;;;;10.50;9.48;;;;;;;33.35;57.00;100631.75;5088023;27;66342;-35
2022/11/30 09:38:59;;;;;;;9.60;8.88;;;;;;;33.36;56.84;100622.50;5081442;27;69578;-35
2022/11/30 09:42:19;;;;;;;11.38;10.13;;;;;;;33.23;56.77;100614.63;5091994;27;66007;-35
2022/11/30 09:44:57;;;;;;;13.20;10.10;;;;;;;33.33;57.15;100620.28;5051564;27;69510;-36
2022/11/30 09:47:46;;;;;;;10.48;9.52;;;;;;;33.32;56.67;100631.38;5081605;27;66353;-36
2022/11/30 09:50:25;;;;;;;13.63;9.55;;;;;;;33.35;57.05;100629.03;5083729;27;69313;-39
2022/11/30 09:53:03;;;;;;;11.10;9.93;;;;;;;33.25;57.07;100615.22;5082999;27;66358;-36
2022/11/30 09:55:39;;;;;;;10.95;9.93;;;;;;;33.10;57.07;100595.94;5082191;27;70068;-35
2022/11/30 09:58:46;;;;;;;11.55;10.43;;;;;;;33.23;57.29;100643.72;5083417;27;66569;-37
2022/11/30 10:01:20;;;;;;;11.02;10.00;;;;;;;33.24;57.50;100632.63;5080585;27;70757;-34
2022/11/30 10:03:51;;;;;;;11.40;10.05;;;;;;;33.30;57.14;100647.94;5081481;27;66815;-36
2022/11/30 10:06:54;;;;;;;10.90;9.90;;;;;;;32.91;57.60;100596.06;5086106;27;70138;-36
2022/11/30 10:09:53;;;;;;;10.63;9.82;;;;;;;33.25;57.27;100656.00;5084120;27;65768;-36
2022/11/30 10:12:58;;;;;;;15.25;10.43;;;;;;;32.83;58.52;100591.00;5081157;27;70484;-34
2022/11/30 10:15:35;;;;;;;25.05;12.30;;;;;;;33.09;59.46;100662.19;5067421;27;65683;-36
2022/11/30 10:18:25;;;;;;;22.27;11.75;;;;;;;32.96;60.68;100659.72;5089316;27;69696;-36
2022/11/30 10:21:02;;;;;;;17.63;11.95;;;;;;;32.97;61.32;100670.34;5081078;27;65479;-35
2022/11/30 10:23:34;;;;;;;15.40;11.65;;;;;;;32.90;62.29;100673.22;5082197;27;70472;-36
2022/11/30 10:26:15;;;;;;;15.10;10.50;;;;;;;32.83;62.07;100672.50;5083357;27;66467;-37
2022/11/30 10:28:52;;;;;;;17.33;11.43;;;;;;;32.77;62.57;100650.91;5082455;27;70159;-35
2022/11/30 10:31:35;;;;;;;22.25;11.90;;;;;;;32.79;63.18;100659.63;5079203;27;65655;-38
2022/11/30 10:34:21;;;;;;;17.85;12.00;;;;;;;32.55;63.13;100634.41;5083873;27;70290;-36
2022/11/30 10:36:54;;;;;;;24.92;11.80;;;;;;;32.75;64.19;100664.72;5075061;27;65628;-36
2022/11/30 10:39:38;;;;;;;20.83;12.60;;;;;;;32.28;64.72;100589.53;5079228;27;69336;-37
2022/11/30 10:42:21;;;;;;;15.45;11.82;;;;;;;32.44;65.08;100620.56;5080619;27;65428;-35
2022/11/30 10:45:09;;;;;;;18.02;11.77;;;;;;;32.21;65.02;100588.84;5071524;27;69516;-37
2022/11/30 10:48:23;;;;;;;16.70;11.82;;;;;;;32.57;65.35;100662.13;5082037;27;65382;-36
2022/11/30 10:50:55;;;;;;;13.00;11.40;;;;;;;32.77;64.13;100656.34;5059325;27;69625;-33
2022/11/30 10:53:27;;;;;;;15.38;12.30;;;;;;;32.84;63.97;100667.91;5084407;27;65541;-35
2022/11/30 10:56:11;;;;;;;17.40;11.20;;;;;;;32.41;64.70;100604.75;5082565;27;69425;-34
2022/11/30 10:58:59;;;;;;;20.58;11.77;;;;;;;32.49;64.66;100612.56;5082732;27;66039;-34
2022/11/30 11:01:36;;;;;;;14.63;11.38;;;;;;;32.96;64.25;100666.00;5080913;27;69613;-35
2022/11/30 11:04:13;;;;;;;18.00;11.70;;;;;;;32.99;64.52;100672.81;5084009;27;66380;-33
2022/11/30 11:07:07;;;;;;;12.88;11.57;;;;;;;32.58;64.31;100599.44;5082499;27;70395;-35
2022/11/30 11:09:41;;;;;;;12.07;10.98;;;;;;;32.59;64.33;100608.41;5081642;27;66534;-33
2022/11/30 11:12:24;;;;;;;15.80;12.05;;;;;;;32.54;64.67;100602.88;5076701;27;69422;-35
2022/11/30 11:15:24;;;;;;;15.50;10.95;;;;;;;32.65;65.11;100631.91;5083012;27;66043;-34
2022/11/30 11:18:15;;;;;;;12.20;11.23;;;;;;;32.92;65.23;100694.69;5078926;27;69578;-35
2022/11/30 11:20:47;;;;;;;11.80;10.80;;;;;;;33.01;64.32;100690.56;5073946;27;66198;-34
2022/11/30 11:23:37;;;;;;;16.17;10.25;;;;;;;32.99;65.23;100697.28;5082634;27;70009;-34
2022/11/30 11:26:23;;;;;;;13.10;9.88;;;;;;;32.74;65.48;100673.94;5070222;27;66365;-34
2022/11/30 11:29:01;;;;;;;15.27;9.88;;;;;;;32.60;65.27;100651.63;5083641;27;70573;-37
2022/11/30 11:31:37;;;;;;;12.95;10.02;;;;;;;32.53;65.05;100655.53;5091118;27;66983;-34
2022/11/30 11:34:24;;;;;;;15.02;9.73;;;;;;;32.88;64.75;100720.69;5084129;27;70229;-34
2022/11/30 11:37:27;;;;;;;10.57;9.20;;;;;;;32.85;64.89;100730.16;5083567;27;66516;-34
2022/11/30 11:40:06;;;;;;;19.42;9.13;;;;;;;32.92;64.92;100725.41;5074828;27;69319;-35
2022/11/30 11:42:50;;;;;;;11.02;9.57;;;;;;;32.88;65.09;100737.00;5081236;27;66345;-35
2022/11/30 11:45:28;;;;;;;10.65;9.77;;;;;;;32.55;64.63;100673.25;5082698;27;70316;-34
2022/11/30 11:48:07;;;;;;;13.68;8.98;;;;;;;32.91;64.86;100747.41;5087314;27;65880;-35
2022/11/30 11:51:00;;;;;;;9.73;8.80;;;;;;;32.79;65.14;100741.97;5077524;27;70075;-34